Time;durP1;ratioP1;P1;durP2;ratioP2;P2;SDS_P1;SDS_P2;PMS_P1;PMS_P2;Temp;Humidity;BMP_temperature;BMP_pressure;BME280_temperature;BME280_humidity;BME280_pressure;Samples;Min_cycle;Max_cycle;Signal;HPM_P1;HPM_P2
2022/07/03 00:04:52;;;;;;;0.50;0.50;;;;;;;20.42;65.16;96936.06;10391479;28;20603;-22
2022/07/03 00:09:52;;;;;;;0.63;0.63;;;;;;;20.59;65.01;96953.75;10384166;28;20032;-20
2022/07/03 00:14:52;;;;;;;1.47;0.40;;;;;;;20.46;63.62;96952.97;10387705;28;20140;-20
2022/07/03 00:19:53;;;;;;;0.30;0.20;;;;;;;20.34;63.68;96944.53;10390163;28;20037;-22
2022/07/03 00:25:02;;;;;;;0.20;0.20;;;;;;;20.30;63.70;96942.03;10384260;28;20431;-20
2022/07/03 00:30:03;;;;;;;0.20;0.20;;;;;;;20.28;64.11;96936.94;10391682;28;20018;-20
2022/07/03 00:35:05;;;;;;;2.78;0.43;;;;;;;20.27;64.13;96942.03;10388756;28;20049;-21
2022/07/03 00:40:05;;;;;;;0.52;0.47;;;;;;;20.17;64.05;96933.59;10394173;28;20448;-21
2022/07/03 00:45:08;;;;;;;1.02;0.40;;;;;;;20.23;64.02;96951.38;10390727;28;20068;-22
2022/07/03 00:50:09;;;;;;;0.25;0.20;;;;;;;20.23;63.81;96945.44;10387451;28;20034;-20
2022/07/03 00:55:15;;;;;;;0.30;0.30;;;;;;;20.24;63.92;96958.16;10388641;28;20033;-21
2022/07/03 01:00:16;;;;;;;2.22;0.73;;;;;;;20.46;64.24;96955.50;10385976;28;20041;-22
2022/07/03 01:05:31;;;;;;;0.50;0.50;;;;;;;20.57;63.59;96953.75;10389951;28;20366;-22
2022/07/03 01:10:41;;;;;;;0.52;0.32;;;;;;;20.43;63.34;96955.53;10382232;28;20435;-21
2022/07/03 01:16:08;;;;;;;0.32;0.30;;;;;;;20.32;63.69;96945.41;10392230;28;20554;-20
2022/07/03 01:21:20;;;;;;;0.43;0.30;;;;;;;20.24;63.83;96937.81;10388689;28;20038;-21
2022/07/03 01:26:26;;;;;;;0.63;0.40;;;;;;;20.24;64.11;96942.88;10398616;28;20505;-20
2022/07/03 01:31:29;;;;;;;0.20;0.20;;;;;;;20.24;63.93;96942.03;10395497;28;20468;-20
2022/07/03 01:36:31;;;;;;;0.20;0.20;;;;;;;20.22;63.96;96943.75;10399597;28;20140;-22
2022/07/03 01:41:31;;;;;;;0.30;0.30;;;;;;;20.21;63.91;96932.75;10387534;28;20484;-23
2022/07/03 01:46:32;;;;;;;0.30;0.30;;;;;;;20.22;63.93;96933.56;10399955;28;20033;-22
2022/07/03 01:51:35;;;;;;;0.60;0.60;;;;;;;20.26;64.23;96920.00;10404261;28;20095;-22
2022/07/03 01:56:35;;;;;;;0.98;0.70;;;;;;;20.51;64.04;96919.88;10389511;28;20037;-20
2022/07/03 02:01:47;;;;;;;0.50;0.40;;;;;;;20.55;62.91;96919.03;10398246;28;20044;-20
2022/07/03 02:07:16;;;;;;;0.28;0.28;;;;;;;20.32;63.58;96909.78;10395739;28;20038;-20
2022/07/03 02:12:19;;;;;;;0.30;0.30;;;;;;;20.29;63.77;96920.84;10378887;28;20465;-23
2022/07/03 02:17:21;;;;;;;0.20;0.20;;;;;;;20.27;63.81;96921.69;10388454;28;20525;-21
2022/07/03 02:22:32;;;;;;;0.22;0.20;;;;;;;20.23;63.91;96931.03;10390305;28;20033;-21
2022/07/03 02:27:47;;;;;;;0.22;0.10;;;;;;;20.22;63.87;96931.03;10397579;28;20040;-22
2022/07/03 02:32:50;;;;;;;0.25;0.25;;;;;;;20.12;63.88;96921.75;10394014;28;20511;-22
2022/07/03 02:38:09;;;;;;;0.30;0.28;;;;;;;20.21;64.01;96926.78;10392172;28;20585;-22
2022/07/03 02:43:47;;;;;;;1.10;0.20;;;;;;;20.20;64.08;96941.22;10383385;28;20084;-21
2022/07/03 02:48:50;;;;;;;2.17;0.88;;;;;;;20.42;63.80;96946.22;10387570;28;20397;-21
2022/07/03 02:54:08;;;;;;;1.23;0.75;;;;;;;20.55;63.03;96952.94;10397543;28;20044;-21
2022/07/03 02:59:17;;;;;;;0.47;0.43;;;;;;;20.42;63.29;96953.84;10382298;28;20033;-21
2022/07/03 03:04:28;;;;;;;0.35;0.30;;;;;;;20.31;63.57;96952.19;10393038;28;20038;-20
2022/07/03 03:09:39;;;;;;;0.35;0.35;;;;;;;20.20;63.72;96935.28;10391525;28;20116;-20
2022/07/03 03:14:45;;;;;;;0.30;0.30;;;;;;;20.22;63.78;96949.69;10394607;28;20032;-21
2022/07/03 03:19:48;;;;;;;0.30;0.30;;;;;;;20.22;63.83;96959.00;10394457;28;20072;-22
2022/07/03 03:24:50;;;;;;;0.30;0.30;;;;;;;20.22;63.84;96959.84;10401150;28;20090;-20
2022/07/03 03:29:51;;;;;;;0.20;0.20;;;;;;;20.20;63.80;96965.78;10394097;28;20034;-21
2022/07/03 03:34:51;;;;;;;0.40;0.30;;;;;;;20.20;63.70;96965.78;10392656;28;20103;-20
2022/07/03 03:39:51;;;;;;;0.53;0.53;;;;;;;20.31;63.92;96964.06;10396147;28;20036;-19
2022/07/03 03:44:52;;;;;;;0.77;0.70;;;;;;;20.50;62.54;96969.94;10395942;28;20306;-20
2022/07/03 03:49:53;;;;;;;0.40;0.30;;;;;;;20.57;62.37;96970.75;10396739;28;20303;-19
2022/07/03 03:54:54;;;;;;;0.35;0.35;;;;;;;20.39;63.07;96968.28;10388342;28;20292;-20
2022/07/03 03:59:56;;;;;;;0.40;0.40;;;;;;;20.29;63.35;96971.72;10390374;28;20033;-21
2022/07/03 04:04:56;;;;;;;0.30;0.30;;;;;;;20.27;63.41;96975.91;10393348;28;20412;-20
2022/07/03 04:09:57;;;;;;;0.30;0.30;;;;;;;20.24;63.53;96972.53;10396275;28;20100;-23
2022/07/03 04:14:58;;;;;;;0.40;0.40;;;;;;;20.16;63.72;96964.09;10390898;28;20539;-20
2022/07/03 04:19:59;;;;;;;0.30;0.30;;;;;;;20.16;63.60;96979.34;10391466;28;20037;-23
2022/07/03 04:24:59;;;;;;;0.20;0.20;;;;;;;20.21;63.63;96987.81;10394661;28;20029;-25
2022/07/03 04:30:00;;;;;;;0.30;0.30;;;;;;;20.21;63.78;96982.72;10394582;28;20026;-22
2022/07/03 04:35:00;;;;;;;1.55;0.68;;;;;;;20.34;63.05;96977.59;10394134;28;20033;-22
2022/07/03 04:40:02;;;;;;;1.02;0.68;;;;;;;20.53;61.65;96979.22;10395631;28;20048;-21
2022/07/03 04:45:03;;;;;;;0.73;0.47;;;;;;;20.53;61.12;96975.00;10388439;28;20488;-23
2022/07/03 04:50:04;;;;;;;0.60;0.40;;;;;;;19.61;60.74;96973.47;10399886;28;20335;-22
2022/07/03 04:55:05;;;;;;;2.10;0.35;;;;;;;19.26;58.86;96989.56;10395056;28;20112;-21
2022/07/03 05:00:06;;;;;;;1.75;0.50;;;;;;;19.06;58.92;96992.03;10397691;28;20085;-23
2022/07/03 05:05:07;;;;;;;0.85;0.45;;;;;;;18.91;59.26;96991.16;10399340;28;20500;-21
2022/07/03 05:10:08;;;;;;;0.63;0.50;;;;;;;18.85;58.89;96991.13;10397180;28;20033;-22
2022/07/03 05:15:09;;;;;;;0.30;0.30;;;;;;;18.94;58.52;96983.53;10404455;28;20041;-26
2022/07/03 05:20:25;;;;;;;0.50;0.50;;;;;;;18.92;58.45;96986.06;10386656;28;20037;-23
2022/07/03 05:25:26;;;;;;;2.67;0.43;;;;;;;18.92;59.11;96993.66;10389657;28;20025;-22
2022/07/03 05:30:27;;;;;;;0.43;0.38;;;;;;;19.02;58.30;96992.00;10400050;28;20033;-21
2022/07/03 05:35:27;;;;;;;0.65;0.47;;;;;;;18.98;58.41;96993.69;10398193;28;20173;-22
2022/07/03 05:40:28;;;;;;;0.77;0.40;;;;;;;19.00;58.76;96997.06;10397729;28;20041;-22
2022/07/03 05:45:28;;;;;;;0.50;0.43;;;;;;;19.05;59.39;96999.63;10393188;28;20026;-23
2022/07/03 05:50:29;;;;;;;2.95;0.47;;;;;;;19.05;59.18;96989.47;10396920;28;20026;-23
2022/07/03 05:55:29;;;;;;;0.50;0.40;;;;;;;19.16;60.31;97003.03;10395282;28;20207;-22
2022/07/03 06:00:30;;;;;;;1.05;0.63;;;;;;;19.42;59.16;96993.81;10387698;28;20088;-23
2022/07/03 06:05:32;;;;;;;0.43;0.40;;;;;;;19.53;58.18;96987.03;10388308;28;20038;-24
2022/07/03 06:10:33;;;;;;;3.00;0.55;;;;;;;19.63;58.54;96986.16;10390873;28;20032;-21
2022/07/03 06:15:33;;;;;;;1.33;0.65;;;;;;;19.73;58.31;96987.84;10390273;28;20033;-23
2022/07/03 06:20:34;;;;;;;0.93;0.43;;;;;;;19.78;58.86;96981.94;10394652;28;20041;-22
2022/07/03 06:25:34;;;;;;;0.60;0.40;;;;;;;19.96;58.81;96981.06;10390970;28;20044;-21
2022/07/03 06:30:35;;;;;;;1.77;0.50;;;;;;;20.00;58.66;96980.22;10393100;28;20026;-22
2022/07/03 06:35:35;;;;;;;2.88;0.35;;;;;;;19.99;59.06;96979.38;10397368;28;20017;-21
2022/07/03 06:40:35;;;;;;;1.95;0.40;;;;;;;20.00;59.64;96973.41;10396335;28;20030;-23
2022/07/03 06:45:36;;;;;;;1.55;0.82;;;;;;;20.11;59.19;96978.53;10391686;28;20040;-22
2022/07/03 06:50:36;;;;;;;0.57;0.37;;;;;;;20.18;59.35;96978.50;10392917;28;20033;-21
2022/07/03 06:55:37;;;;;;;0.60;0.43;;;;;;;20.29;59.21;96966.63;10392733;28;20636;-21
2022/07/03 07:00:38;;;;;;;1.15;0.40;;;;;;;20.36;59.63;96969.97;10390390;28;20083;-22
2022/07/03 07:05:38;;;;;;;0.43;0.43;;;;;;;20.39;59.73;96964.00;10392193;28;20480;-21
2022/07/03 07:10:39;;;;;;;7.43;0.60;;;;;;;20.42;59.31;96969.13;10388861;28;20026;-22
2022/07/03 07:15:39;;;;;;;0.60;0.60;;;;;;;20.40;59.53;96955.53;10394710;28;20045;-22
2022/07/03 07:20:40;;;;;;;0.85;0.40;;;;;;;20.49;59.81;96967.38;10389547;28;20400;-23
2022/07/03 07:25:41;;;;;;;2.65;0.75;;;;;;;20.50;59.34;96969.94;10387784;28;20117;-21
2022/07/03 07:30:41;;;;;;;1.98;0.43;;;;;;;20.42;59.60;96967.44;10373182;28;20045;-21
2022/07/03 07:35:41;;;;;;;1.23;0.70;;;;;;;20.52;59.75;96973.31;10395679;28;20048;-20
2022/07/03 07:40:42;;;;;;;0.80;0.40;;;;;;;20.48;59.85;96979.25;10391189;28;20038;-22
2022/07/03 07:45:43;;;;;;;1.17;0.60;;;;;;;20.51;59.63;96979.25;10395649;28;20040;-22
2022/07/03 07:50:43;;;;;;;1.42;0.85;;;;;;;20.53;59.61;96972.44;10392166;28;20029;-21
2022/07/03 07:55:43;;;;;;;0.70;0.28;;;;;;;20.53;59.56;96977.53;10386313;28;20389;-22
2022/07/03 08:06:05;;;;;;;1.45;0.70;;;;;;;20.54;59.60;96968.22;10377540;28;20303;-20
2022/07/03 08:11:05;;;;;;;0.65;0.30;;;;;;;20.48;59.32;96969.06;10388820;28;20021;-22
2022/07/03 08:16:05;;;;;;;0.47;0.43;;;;;;;20.56;59.53;96958.88;10394829;28;20519;-22
2022/07/03 08:21:06;;;;;;;1.33;0.73;;;;;;;20.59;59.57;96957.16;10389858;28;20113;-21
2022/07/03 08:26:06;;;;;;;0.77;0.33;;;;;;;20.55;59.35;96959.72;10392425;28;20033;-21
2022/07/03 08:31:07;;;;;;;0.47;0.40;;;;;;;20.59;59.26;96957.16;10395088;28;20410;-20
2022/07/03 08:36:07;;;;;;;1.43;0.40;;;;;;;20.61;59.48;96955.44;10388610;28;20036;-21
2022/07/03 08:41:08;;;;;;;1.85;0.30;;;;;;;20.62;59.12;96954.59;10391205;28;20300;-22
2022/07/03 08:46:11;;;;;;;1.45;0.57;;;;;;;20.50;59.36;96962.31;10386803;28;20116;-21
2022/07/03 08:51:11;;;;;;;0.80;0.50;;;;;;;20.58;59.13;96958.03;10381456;28;20037;-21
2022/07/03 08:56:12;;;;;;;0.60;0.40;;;;;;;20.61;59.48;96960.53;10376415;28;20396;-21
2022/07/03 09:01:16;;;;;;;4.60;0.30;;;;;;;20.61;59.19;96954.59;10389198;28;20122;-21
2022/07/03 09:06:16;;;;;;;0.85;0.32;;;;;;;20.64;58.92;96960.53;10389066;28;20419;-22
2022/07/03 09:11:17;;;;;;;1.67;0.50;;;;;;;20.69;58.64;96963.91;10385470;28;20037;-20
2022/07/03 09:16:17;;;;;;;1.02;0.60;;;;;;;20.69;58.72;96957.94;10394694;28;20029;-20
2022/07/03 09:21:20;;;;;;;0.40;0.40;;;;;;;20.69;58.80;96963.03;10388075;28;20579;-21
2022/07/03 09:26:25;;;;;;;0.90;0.40;;;;;;;20.69;58.98;96961.34;10384814;28;20049;-22
2022/07/03 09:31:29;;;;;;;0.80;0.30;;;;;;;20.70;58.67;96957.94;10392593;28;20022;-23
2022/07/03 09:36:50;;;;;;;0.88;0.40;;;;;;;20.69;58.76;96952.88;10392490;28;20406;-21
2022/07/03 09:42:07;;;;;;;0.45;0.30;;;;;;;20.70;58.74;96949.47;10392474;28;20209;-22
2022/07/03 09:47:18;;;;;;;0.73;0.50;;;;;;;20.59;58.70;96946.13;10395933;28;20041;-21
2022/07/03 09:52:38;;;;;;;0.47;0.32;;;;;;;20.69;58.83;96935.91;10391458;28;20029;-21
2022/07/03 09:57:42;;;;;;;4.25;0.60;;;;;;;20.78;58.39;96940.94;10390372;28;20037;-22
2022/07/03 10:03:00;;;;;;;1.67;0.40;;;;;;;20.85;58.07;96924.78;10392498;28;20037;-19
2022/07/03 10:08:12;;;;;;;1.48;0.50;;;;;;;20.77;58.35;96923.13;10394157;28;20040;-22
2022/07/03 10:13:14;;;;;;;0.40;0.20;;;;;;;20.80;58.27;96931.59;10386934;28;20025;-20
2022/07/03 10:18:14;;;;;;;3.58;0.65;;;;;;;20.79;58.65;96932.44;10396388;28;20033;-21
2022/07/03 10:23:16;;;;;;;3.10;0.60;;;;;;;20.80;58.43;96923.97;10395691;28;20507;-21
2022/07/03 10:28:18;;;;;;;3.30;0.43;;;;;;;20.73;58.78;96922.31;10397646;28;20030;-20
2022/07/03 10:33:18;;;;;;;2.28;0.40;;;;;;;20.50;59.87;96924.16;10390980;28;20360;-21
2022/07/03 10:38:39;;;;;;;6.13;0.50;;;;;;;20.43;60.32;96922.47;10397613;28;20439;-21
2022/07/03 10:49:05;;;;;;;2.67;0.57;;;;;;;20.35;60.83;96925.88;10395680;28;20033;-21
2022/07/03 10:54:38;;;;;;;0.40;0.40;;;;;;;20.55;60.13;96919.84;10386559;28;20025;-20
2022/07/03 10:59:42;;;;;;;4.60;0.95;;;;;;;20.66;60.23;96912.19;10391742;28;20046;-20
2022/07/03 11:04:58;;;;;;;0.73;0.40;;;;;;;20.56;60.36;96910.53;10386198;28;20037;-21
2022/07/03 11:10:12;;;;;;;2.63;0.40;;;;;;;20.43;60.67;96904.66;10387463;28;20083;-21
2022/07/03 11:15:37;;;;;;;0.73;0.52;;;;;;;20.39;61.12;96902.97;10389014;28;20034;-20
2022/07/03 11:21:00;;;;;;;2.50;0.65;;;;;;;20.31;61.30;96893.72;10381809;28;20117;-21
2022/07/03 11:26:09;;;;;;;5.32;1.00;;;;;;;20.33;61.21;96897.09;10389275;28;20149;-21
2022/07/03 11:31:18;;;;;;;2.33;0.73;;;;;;;20.44;61.37;96891.09;10392790;28;20084;-21
2022/07/03 11:36:20;;;;;;;2.72;1.05;;;;;;;20.61;60.95;96894.41;10391836;28;20135;-22
2022/07/03 11:41:22;;;;;;;2.15;0.70;;;;;;;20.60;60.77;96885.06;10387440;28;20029;-21
2022/07/03 11:46:25;;;;;;;2.40;0.85;;;;;;;20.51;61.06;96876.66;10380683;28;20392;-22
2022/07/03 11:51:25;;;;;;;1.40;1.20;;;;;;;20.41;61.10;96872.47;10392417;28;20127;-19
2022/07/03 11:56:26;;;;;;;5.47;1.70;;;;;;;20.32;61.82;96858.94;10384687;28;20060;-22
2022/07/03 12:01:27;;;;;;;4.93;3.42;;;;;;;20.40;61.24;96863.97;10391781;28;20163;-23
2022/07/03 12:06:37;;;;;;;7.10;2.72;;;;;;;20.37;61.50;96867.41;10389712;28;20091;-24
2022/07/03 12:11:38;;;;;;;6.20;4.50;;;;;;;20.42;61.70;96871.59;10382763;28;20504;-21
2022/07/03 12:16:38;;;;;;;5.93;4.47;;;;;;;20.62;61.60;96860.47;10397539;28;20040;-22
2022/07/03 12:21:39;;;;;;;2.97;1.95;;;;;;;20.64;60.90;96861.28;10386224;28;20036;-21
2022/07/03 12:26:40;;;;;;;3.50;2.67;;;;;;;20.50;60.88;96850.38;10391359;28;20029;-22
2022/07/03 12:31:43;;;;;;;3.40;2.20;;;;;;;20.43;61.33;96848.72;10392359;28;20038;-21
2022/07/03 12:37:04;;;;;;;2.65;1.85;;;;;;;20.38;61.57;96843.66;10387410;28;20459;-23
2022/07/03 12:42:22;;;;;;;4.15;2.30;;;;;;;20.36;61.55;96845.38;10389081;28;20045;-21
2022/07/03 12:47:23;;;;;;;3.17;2.40;;;;;;;20.33;61.69;96836.06;10385491;28;20108;-20
2022/07/03 12:52:23;;;;;;;2.50;1.90;;;;;;;20.29;61.85;96818.28;10388817;28;20448;-21
2022/07/03 13:02:47;;;;;;;6.38;3.58;;;;;;;20.65;61.70;96804.47;10385053;28;20407;-21
2022/07/03 13:07:52;;;;;;;2.03;0.90;;;;;;;20.57;61.22;96810.47;10394047;28;20503;-21
2022/07/03 13:12:59;;;;;;;3.42;1.85;;;;;;;20.46;61.52;96808.00;10397128;28;20036;-21
2022/07/03 13:18:00;;;;;;;1.42;1.30;;;;;;;20.42;61.80;96798.72;10388818;28;20339;-22
2022/07/03 13:23:03;;;;;;;3.40;1.80;;;;;;;20.38;61.95;96791.94;10394996;28;20487;-21
2022/07/03 13:28:08;;;;;;;1.83;1.10;;;;;;;20.37;61.91;96799.59;10400720;28;20041;-22
2022/07/03 13:33:09;;;;;;;3.88;1.42;;;;;;;20.36;62.14;96805.50;10393928;28;20033;-22
2022/07/03 13:38:09;;;;;;;3.08;2.08;;;;;;;20.37;62.14;96806.38;10391346;28;20030;-21
2022/07/03 13:43:10;;;;;;;3.27;2.50;;;;;;;20.55;62.77;96799.47;10392521;28;20037;-21
2022/07/03 13:48:10;;;;;;;4.03;2.20;;;;;;;20.71;62.31;96798.53;10400416;28;20291;-21
2022/07/03 13:53:11;;;;;;;1.20;0.90;;;;;;;20.62;61.39;96794.31;10393355;28;20072;-21
2022/07/03 13:58:12;;;;;;;1.67;1.10;;;;;;;20.51;61.38;96796.09;10393171;28;20360;-21
2022/07/03 14:03:12;;;;;;;1.15;1.05;;;;;;;20.42;61.93;96780.91;10394211;28;20055;-21
2022/07/03 14:08:13;;;;;;;1.40;1.00;;;;;;;20.40;61.70;96782.59;10391315;28;20018;-21
2022/07/03 14:13:14;;;;;;;2.13;1.30;;;;;;;20.38;61.93;96779.22;10393788;28;20026;-21
2022/07/03 14:18:14;;;;;;;1.95;1.00;;;;;;;20.37;62.08;96784.34;10393058;28;20162;-23
2022/07/03 14:23:14;;;;;;;2.25;1.60;;;;;;;20.39;62.03;96775.00;10393493;28;20156;-21
2022/07/03 14:33:34;;;;;;;3.95;1.88;;;;;;;20.65;62.44;96776.47;10390813;28;20037;-20
2022/07/03 14:38:34;;;;;;;1.97;1.77;;;;;;;20.71;61.57;96776.44;10398103;28;20036;-21
2022/07/03 14:43:34;;;;;;;2.03;1.30;;;;;;;20.59;61.69;96791.81;10391282;28;20076;-21
2022/07/03 14:48:35;;;;;;;5.77;1.60;;;;;;;20.49;61.79;96782.56;10395623;28;20049;-20
2022/07/03 14:53:35;;;;;;;2.38;1.20;;;;;;;20.46;61.86;96781.75;10395933;28;20395;-21
2022/07/03 14:58:38;;;;;;;4.43;0.90;;;;;;;20.42;61.99;96769.06;10390212;28;20026;-21
2022/07/03 15:03:55;;;;;;;1.80;0.80;;;;;;;20.39;62.03;96769.91;10393957;28;20026;-20
2022/07/03 15:09:03;;;;;;;2.05;0.80;;;;;;;20.37;62.03;96770.78;10391370;28;20025;-22
2022/07/03 15:14:05;;;;;;;1.10;0.93;;;;;;;20.37;62.26;96760.59;10393507;28;20029;-21
2022/07/03 15:19:09;;;;;;;1.20;1.05;;;;;;;20.60;61.61;96755.34;10390751;28;20029;-22
2022/07/03 15:24:12;;;;;;;1.73;1.00;;;;;;;20.69;61.24;96760.34;10387552;28;20037;-21
2022/07/03 15:29:13;;;;;;;0.75;0.70;;;;;;;20.57;61.39;96760.44;10392136;28;20506;-21
2022/07/03 15:34:13;;;;;;;1.33;0.77;;;;;;;20.50;61.84;96761.34;10388266;28;20033;-20
2022/07/03 15:39:27;;;;;;;1.50;0.63;;;;;;;20.44;62.23;96753.75;10392061;28;20037;-23
2022/07/03 15:44:38;;;;;;;3.85;1.02;;;;;;;20.42;61.96;96750.41;10392722;28;20033;-20
2022/07/03 15:49:42;;;;;;;1.15;0.80;;;;;;;20.40;61.55;96749.53;10384739;28;20034;-22
2022/07/03 15:54:56;;;;;;;2.42;1.20;;;;;;;20.46;62.20;96741.88;10394847;28;20034;-21
2022/07/03 16:00:09;;;;;;;1.52;1.05;;;;;;;20.68;61.24;96748.50;10387201;28;20029;-20
2022/07/03 16:05:14;;;;;;;1.40;0.95;;;;;;;20.70;61.01;96745.91;10389310;28;20072;-22
2022/07/03 16:10:14;;;;;;;0.82;0.70;;;;;;;20.56;61.52;96738.41;10388602;28;20025;-20
2022/07/03 16:15:16;;;;;;;0.70;0.50;;;;;;;20.47;61.89;96730.84;10392335;28;20455;-20
2022/07/03 16:20:17;;;;;;;1.90;0.65;;;;;;;20.43;62.12;96729.19;10388164;28;20441;-21
2022/07/03 16:25:18;;;;;;;0.93;0.70;;;;;;;20.42;62.02;96725.81;10389031;28;20034;-21
2022/07/03 16:30:19;;;;;;;2.03;0.57;;;;;;;20.38;61.89;96713.97;10392241;28;20048;-22
2022/07/03 16:35:42;;;;;;;0.53;0.53;;;;;;;20.38;62.17;96711.44;10386937;28;20025;-22
2022/07/03 16:40:43;;;;;;;4.25;0.93;;;;;;;20.44;62.37;96712.22;10390433;28;20300;-20
2022/07/03 16:45:44;;;;;;;1.40;0.88;;;;;;;20.69;61.28;96709.47;10395388;28;20042;-22
2022/07/03 16:50:54;;;;;;;2.30;0.98;;;;;;;20.79;60.82;96703.44;10393022;28;20112;-20
2022/07/03 16:55:55;;;;;;;1.85;0.80;;;;;;;20.72;61.11;96698.44;10396165;28;20088;-20
2022/07/03 17:01:04;;;;;;;1.58;0.73;;;;;;;20.66;61.40;96704.41;10396771;28;20189;-21
2022/07/03 17:06:05;;;;;;;1.27;0.68;;;;;;;20.64;61.48;96706.09;10397260;28;20048;-21
2022/07/03 17:11:06;;;;;;;2.60;0.60;;;;;;;20.62;61.34;96707.84;10390943;28;20498;-21
2022/07/03 17:16:07;;;;;;;1.02;0.93;;;;;;;20.60;61.46;96708.69;10399431;28;20037;-21
2022/07/03 17:21:07;;;;;;;0.82;0.70;;;;;;;20.59;61.78;96699.38;10400911;28;20041;-25
2022/07/03 17:26:15;;;;;;;2.53;1.00;;;;;;;20.54;61.71;96708.78;10396025;28;20124;-22
2022/07/03 17:31:21;;;;;;;2.13;0.90;;;;;;;20.73;61.83;96703.47;10400384;28;20033;-21
2022/07/03 17:36:24;;;;;;;3.63;0.75;;;;;;;20.80;61.10;96702.56;10391946;28;20031;-22
2022/07/03 17:41:27;;;;;;;2.60;0.80;;;;;;;20.70;61.80;96705.22;10392885;28;20489;-20
2022/07/03 17:46:29;;;;;;;2.78;0.80;;;;;;;20.64;61.88;96701.03;10393866;28;20475;-21
2022/07/03 17:51:29;;;;;;;2.25;0.80;;;;;;;20.59;61.83;96695.16;10391985;28;20472;-22
2022/07/03 17:56:30;;;;;;;0.65;0.57;;;;;;;20.57;61.87;96699.38;10391677;28;20096;-21
2022/07/03 18:01:31;;;;;;;3.50;0.60;;;;;;;20.48;62.07;96683.38;10391929;28;20540;-22
2022/07/03 18:06:35;;;;;;;2.92;0.90;;;;;;;20.51;62.12;96704.53;10397087;28;20287;-21
2022/07/03 18:11:56;;;;;;;3.35;0.75;;;;;;;20.52;61.87;96702.81;10390255;28;20036;-20
2022/07/03 18:17:00;;;;;;;3.08;1.00;;;;;;;20.72;62.47;96706.88;10393244;28;20107;-23
2022/07/03 18:22:02;;;;;;;6.40;1.30;;;;;;;20.79;61.77;96689.88;10393415;28;20120;-20
2022/07/03 18:27:10;;;;;;;4.78;1.00;;;;;;;20.68;61.66;96692.53;10398017;28;20025;-21
2022/07/03 18:32:12;;;;;;;2.10;1.08;;;;;;;20.57;62.16;96690.94;10388445;28;20029;-22
2022/07/03 18:37:13;;;;;;;0.80;0.65;;;;;;;20.54;62.09;96704.50;10397038;28;20065;-20
2022/07/03 18:42:13;;;;;;;2.95;0.70;;;;;;;20.51;62.07;96717.25;10390950;28;20039;-22
2022/07/03 18:47:14;;;;;;;2.58;0.80;;;;;;;20.58;62.65;96731.63;10395265;28;20067;-21
2022/07/03 18:52:35;;;;;;;1.58;0.98;;;;;;;20.79;62.21;96721.25;10396470;28;20029;-21
2022/07/03 18:57:49;;;;;;;0.93;0.65;;;;;;;20.76;61.68;96723.84;10388079;28;20084;-22
2022/07/03 19:03:01;;;;;;;1.23;0.65;;;;;;;20.61;61.95;96736.66;10381277;28;20033;-22
2022/07/03 19:08:06;;;;;;;2.67;0.68;;;;;;;20.54;62.04;96719.78;10390158;28;20057;-21
2022/07/03 19:13:07;;;;;;;1.08;0.60;;;;;;;20.51;62.08;96714.72;10388532;28;20034;-22
2022/07/03 19:18:08;;;;;;;3.50;0.75;;;;;;;20.45;62.25;96703.75;10390855;28;20040;-21
2022/07/03 19:23:08;;;;;;;1.07;0.70;;;;;;;20.45;62.19;96693.59;10387761;28;20049;-21
2022/07/03 19:28:09;;;;;;;2.05;0.80;;;;;;;20.63;62.68;96704.44;10381109;28;20299;-21
2022/07/03 19:33:09;;;;;;;3.85;1.20;;;;;;;20.81;62.62;96714.44;10387930;28;20025;-22
2022/07/03 19:38:11;;;;;;;2.07;0.63;;;;;;;20.76;61.64;96728.06;10385348;28;20633;-22
2022/07/03 19:43:11;;;;;;;12.32;3.47;;;;;;;20.63;61.89;96745.13;10379991;28;20030;-21
2022/07/03 19:48:12;;;;;;;1.97;0.57;;;;;;;20.58;62.00;96766.38;10382220;28;20391;-21
2022/07/03 19:53:14;;;;;;;0.80;0.55;;;;;;;20.54;62.00;96785.91;10389008;28;20365;-21
2022/07/03 19:58:14;;;;;;;0.82;0.70;;;;;;;20.51;62.32;96813.06;10390202;28;20110;-21
2022/07/03 20:03:15;;;;;;;1.47;0.90;;;;;;;20.53;62.68;96807.09;10392216;28;20480;-21
2022/07/03 20:08:16;;;;;;;0.80;0.60;;;;;;;20.79;62.69;96823.03;10386892;28;20337;-22
2022/07/03 20:13:16;;;;;;;1.40;0.90;;;;;;;20.82;61.81;96835.72;10380709;28;20029;-22
2022/07/03 20:18:17;;;;;;;0.98;0.60;;;;;;;20.70;61.88;96838.38;10388722;28;20587;-22
2022/07/03 20:23:17;;;;;;;6.13;1.00;;;;;;;20.53;62.42;96847.81;10394866;28;20033;-21
2022/07/03 20:28:17;;;;;;;32.03;3.70;;;;;;;20.54;62.92;96861.38;10390516;28;20041;-21
2022/07/03 20:33:18;;;;;;;5.27;1.07;;;;;;;20.53;62.65;96868.16;10387641;28;20041;-22
2022/07/03 20:38:18;;;;;;;3.60;1.10;;;;;;;20.50;62.65;96875.81;10389428;28;20296;-21
2022/07/03 20:43:18;;;;;;;2.40;0.80;;;;;;;20.48;62.51;96866.50;10384944;28;20040;-22
2022/07/03 20:48:21;;;;;;;4.73;1.27;;;;;;;20.70;63.13;96870.59;10395906;28;20792;-21
2022/07/03 20:53:21;;;;;;;2.47;1.05;;;;;;;20.86;63.20;96865.44;10392084;28;20040;-21
2022/07/03 20:58:21;;;;;;;1.97;0.73;;;;;;;20.76;62.13;96860.38;10386892;28;20048;-22
2022/07/03 21:03:22;;;;;;;3.37;0.90;;;;;;;20.61;62.06;96850.28;10388674;28;20488;-21
2022/07/03 21:08:28;;;;;;;3.33;0.70;;;;;;;20.55;62.38;96863.91;10389983;28;20033;-20
2022/07/03 21:13:28;;;;;;;1.38;0.63;;;;;;;20.49;62.38;96863.09;10390602;28;20045;-22
2022/07/03 21:18:28;;;;;;;1.27;0.70;;;;;;;20.47;62.31;96864.81;10393645;28;20052;-22
2022/07/03 21:23:29;;;;;;;1.50;1.00;;;;;;;20.44;62.56;96870.75;10390113;28;20033;-22
2022/07/03 21:28:29;;;;;;;0.73;0.60;;;;;;;20.38;62.41;96870.78;10389522;28;20025;-21
2022/07/03 21:33:29;;;;;;;2.57;0.83;;;;;;;20.74;63.26;96890.09;10398004;28;20508;-22
2022/07/03 21:38:30;;;;;;;1.57;0.67;;;;;;;20.87;62.29;96887.47;10401070;28;20297;-21
2022/07/03 21:43:30;;;;;;;2.27;0.80;;;;;;;20.73;62.26;96894.31;10395594;28;20038;-21
2022/07/03 21:48:31;;;;;;;1.45;0.68;;;;;;;20.60;62.05;96891.84;10396591;28;20025;-21
2022/07/03 21:53:32;;;;;;;0.57;0.50;;;;;;;20.55;62.21;96883.41;10396244;28;20396;-22
2022/07/03 21:58:33;;;;;;;3.70;0.75;;;;;;;20.51;62.10;96889.34;10395930;28;20803;-22
2022/07/03 22:03:34;;;;;;;1.03;0.60;;;;;;;20.49;62.53;96874.13;10398728;28;20109;-22
2022/07/03 22:08:34;;;;;;;1.90;1.00;;;;;;;20.47;62.20;96878.34;10396248;28;20782;-21
2022/07/03 22:13:34;;;;;;;1.57;0.60;;;;;;;20.46;62.48;96870.75;10396084;28;20026;-21
2022/07/03 22:18:35;;;;;;;3.77;0.90;;;;;;;20.73;62.82;96851.06;10395117;28;20044;-21
2022/07/03 22:23:35;;;;;;;3.03;0.70;;;;;;;20.84;62.75;96828.94;10395948;28;20284;-22
2022/07/03 22:28:36;;;;;;;1.88;0.40;;;;;;;20.75;62.30;96869.72;10393453;28;20034;-21
2022/07/03 22:33:36;;;;;;;0.90;0.60;;;;;;;20.61;62.07;96868.97;10397334;28;20043;-22
2022/07/03 22:38:37;;;;;;;0.83;0.57;;;;;;;20.54;62.34;96880.03;10393242;28;20779;-22
2022/07/03 22:43:37;;;;;;;0.60;0.40;;;;;;;20.50;62.37;96870.72;10386982;28;20484;-21
2022/07/03 22:48:37;;;;;;;1.87;0.60;;;;;;;20.48;62.47;96877.50;10395374;28;20313;-22
2022/07/03 22:53:38;;;;;;;0.87;0.60;;;;;;;20.47;62.35;96870.72;10394464;28;20045;-22
2022/07/03 22:58:38;;;;;;;0.60;0.30;;;;;;;20.43;62.54;96865.66;10395337;28;20100;-21
2022/07/03 23:03:39;;;;;;;1.95;1.00;;;;;;;20.68;63.11;96875.72;10398836;28;20041;-21
2022/07/03 23:08:39;;;;;;;1.93;0.87;;;;;;;20.89;63.14;96887.47;10393312;28;20034;-21
2022/07/03 23:13:40;;;;;;;0.93;0.50;;;;;;;20.76;62.10;96876.50;10393521;28;20475;-21
2022/07/03 23:18:40;;;;;;;0.85;0.63;;;;;;;20.59;62.21;96875.75;10398325;28;20026;-21
2022/07/03 23:23:42;;;;;;;1.13;0.40;;;;;;;20.55;62.34;96873.25;10395347;28;20034;-23
2022/07/03 23:28:43;;;;;;;0.60;0.40;;;;;;;20.49;62.21;96853.78;10401674;28;20034;-22
2022/07/03 23:33:43;;;;;;;3.03;0.60;;;;;;;20.48;62.49;96857.16;10388598;28;20037;-21
2022/07/03 23:38:44;;;;;;;1.13;0.70;;;;;;;20.44;62.80;96844.47;10402278;28;20415;-21
2022/07/03 23:43:44;;;;;;;1.10;0.53;;;;;;;20.45;62.49;96846.19;10388127;28;20303;-21
2022/07/03 23:54:04;;;;;;;0.88;0.65;;;;;;;20.87;63.40;96864.56;10399815;28;20303;-21
2022/07/03 23:59:04;;;;;;;0.80;0.60;;;;;;;20.80;62.24;96869.69;10394690;28;20044;-21
